createdAt,value
2023-04-16T00:00:10.344Z,36.50
2023-04-16T00:00:43.027Z,36.80
2023-04-16T00:01:15.719Z,35.90
2023-04-16T00:01:48.433Z,35.60
2023-04-16T00:02:21.420Z,37.20
2023-04-16T00:02:47.945Z,38.90
2023-04-16T00:03:20.854Z,40.00
2023-04-16T00:03:53.866Z,35.80
2023-04-16T00:04:20.304Z,38.00
2023-04-16T00:04:52.983Z,34.50
2023-04-16T00:05:25.635Z,36.60
2023-04-16T00:05:56.724Z,37.50
2023-04-16T00:06:29.381Z,37.00
2023-04-16T00:07:02.049Z,36.80
2023-04-16T00:07:34.750Z,35.60
2023-04-16T00:08:07.426Z,36.30
2023-04-16T00:08:40.301Z,38.60
2023-04-16T00:09:12.960Z,39.50
2023-04-16T00:09:45.615Z,37.80
2023-04-16T00:10:18.308Z,40.60
2023-04-16T00:10:50.951Z,39.70
2023-04-16T00:11:23.619Z,37.80
2023-04-16T00:11:56.289Z,39.10
2023-04-16T00:12:28.970Z,38.50
2023-04-16T00:13:01.636Z,36.00
2023-04-16T00:13:34.299Z,40.90
2023-04-16T00:14:06.973Z,38.50
2023-04-16T00:14:39.637Z,40.10
2023-04-16T00:15:12.313Z,39.50
2023-04-16T00:15:44.993Z,38.60
2023-04-16T00:16:17.732Z,39.80
2023-04-16T00:16:50.505Z,38.20
2023-04-16T00:17:23.237Z,37.30
2023-04-16T00:17:56.025Z,37.90
2023-04-16T00:18:28.711Z,37.60
2023-04-16T00:19:01.363Z,40.00
2023-04-16T00:19:34.019Z,39.10
2023-04-16T00:20:06.688Z,39.70
2023-04-16T00:20:39.355Z,40.60
2023-04-16T00:21:12.039Z,37.70
2023-04-16T00:21:44.711Z,38.00
2023-04-16T00:22:17.380Z,36.10
2023-04-16T00:22:50.078Z,38.60
2023-04-16T00:23:22.752Z,38.80
2023-04-16T00:23:55.459Z,38.60
2023-04-16T00:24:28.105Z,38.20
2023-04-16T00:25:00.778Z,37.20
2023-04-16T00:25:33.454Z,37.30
2023-04-16T00:26:06.105Z,37.70
2023-04-16T00:26:38.779Z,37.30
2023-04-16T00:27:11.435Z,37.70
2023-04-16T00:27:44.124Z,38.30
2023-04-16T00:28:16.796Z,40.50
2023-04-16T00:28:49.467Z,39.30
2023-04-16T00:29:22.132Z,35.40
2023-04-16T00:29:54.807Z,35.70
2023-04-16T00:30:27.468Z,37.30
2023-04-16T00:31:00.182Z,39.40
2023-04-16T00:31:32.879Z,38.60
2023-04-16T00:32:05.541Z,37.90
2023-04-16T00:32:38.274Z,37.80
2023-04-16T00:33:09.321Z,40.10
2023-04-16T00:33:41.995Z,37.30
2023-04-16T00:34:14.664Z,35.40
2023-04-16T00:34:47.318Z,36.40
2023-04-16T00:35:20.011Z,36.70
2023-04-16T00:35:52.684Z,38.50
2023-04-16T00:36:25.375Z,38.10
2023-04-16T00:36:58.015Z,34.90
2023-04-16T00:37:30.687Z,35.90
2023-04-16T00:38:03.370Z,38.50
2023-04-16T00:38:36.032Z,37.90
2023-04-16T00:39:09.110Z,37.30
2023-04-16T00:39:35.373Z,38.90
2023-04-16T00:40:08.057Z,38.80
2023-04-16T00:40:40.720Z,36.50
2023-04-16T00:41:13.376Z,38.00
2023-04-16T00:41:46.052Z,38.30
2023-04-16T00:42:18.747Z,36.80
2023-04-16T00:42:51.412Z,37.00
2023-04-16T00:43:24.064Z,37.70
2023-04-16T00:43:56.742Z,38.20
2023-04-16T00:44:29.404Z,39.40
2023-04-16T00:45:02.119Z,37.70
2023-04-16T00:45:34.793Z,37.50
2023-04-16T00:46:07.502Z,38.40
2023-04-16T00:46:40.332Z,37.40
2023-04-16T00:47:13.057Z,40.10
2023-04-16T00:47:45.805Z,37.00
2023-04-16T00:48:18.456Z,35.90
2023-04-16T00:48:51.137Z,36.00
2023-04-16T00:49:23.801Z,38.20
2023-04-16T00:49:56.477Z,37.00
2023-04-16T00:50:29.167Z,37.70
2023-04-16T00:51:01.866Z,38.80
2023-04-16T00:51:34.514Z,36.20
2023-04-16T00:52:07.203Z,38.20
2023-04-16T00:52:39.912Z,36.40
2023-04-16T00:53:12.542Z,36.50
2023-04-16T00:53:45.202Z,40.40
2023-04-16T00:54:17.900Z,37.10
2023-04-16T00:54:50.546Z,35.20
2023-04-16T00:55:23.235Z,38.80
2023-04-16T00:55:55.881Z,36.80
2023-04-16T00:56:28.562Z,40.80
2023-04-16T00:57:01.261Z,40.60
2023-04-16T00:57:33.913Z,36.00
2023-04-16T00:58:06.584Z,36.00
2023-04-16T00:58:39.252Z,37.50
2023-04-16T00:59:11.990Z,37.20
2023-04-16T00:59:44.687Z,37.50
2023-04-16T01:00:17.374Z,38.60
2023-04-16T01:00:50.013Z,37.90
2023-04-16T01:01:16.561Z,36.50
2023-04-16T01:01:49.330Z,37.20
2023-04-16T01:02:22.162Z,37.70
2023-04-16T01:02:55.003Z,37.80
2023-04-16T01:03:27.869Z,34.50
2023-04-16T01:04:00.691Z,38.90
2023-04-16T01:04:33.462Z,35.10
2023-04-16T01:05:06.156Z,34.30
2023-04-16T01:05:38.842Z,38.10
2023-04-16T01:06:11.503Z,35.30
2023-04-16T01:06:44.193Z,34.70
2023-04-16T01:07:16.848Z,35.60
2023-04-16T01:07:49.553Z,37.00
2023-04-16T01:08:22.202Z,36.60
2023-04-16T01:08:54.884Z,37.10
2023-04-16T01:09:27.570Z,36.00
2023-04-16T01:10:00.241Z,38.70
2023-04-16T01:10:32.924Z,37.90
2023-04-16T01:11:05.609Z,36.70
2023-04-16T01:11:38.256Z,37.00
2023-04-16T01:12:10.933Z,37.80
2023-04-16T01:12:43.607Z,37.90
2023-04-16T01:13:16.270Z,36.30
2023-04-16T01:13:48.933Z,37.50
2023-04-16T01:14:21.622Z,37.70
2023-04-16T01:14:54.302Z,37.70
2023-04-16T01:15:26.939Z,38.00
2023-04-16T01:15:59.649Z,36.20
2023-04-16T01:16:32.322Z,36.80
2023-04-16T01:17:04.976Z,39.00
2023-04-16T01:17:37.694Z,37.40
2023-04-16T01:18:10.355Z,36.70
2023-04-16T01:18:41.437Z,35.60
2023-04-16T01:19:14.089Z,36.20
2023-04-16T01:19:46.758Z,37.80
2023-04-16T01:20:19.425Z,36.10
2023-04-16T01:20:52.106Z,37.40
2023-04-16T01:21:24.761Z,39.40
2023-04-16T01:21:57.426Z,37.20
2023-04-16T01:22:30.093Z,38.30
2023-04-16T01:23:02.857Z,38.30
2023-04-16T01:23:35.529Z,38.30
2023-04-16T01:24:08.198Z,37.60
2023-04-16T01:24:40.874Z,35.90
2023-04-16T01:25:13.523Z,37.40
2023-04-16T01:25:46.190Z,37.00
2023-04-16T01:26:18.859Z,40.20
2023-04-16T01:26:51.533Z,39.60
2023-04-16T01:27:24.281Z,36.80
2023-04-16T01:27:56.964Z,39.80
2023-04-16T01:28:29.625Z,37.30
2023-04-16T01:29:02.295Z,37.50
2023-04-16T01:29:34.966Z,36.90
2023-04-16T01:30:07.687Z,36.60
2023-04-16T01:30:38.750Z,37.40
2023-04-16T01:31:11.430Z,36.80
2023-04-16T01:31:44.132Z,37.40
2023-04-16T01:32:16.795Z,39.30
2023-04-16T01:32:49.526Z,37.60
2023-04-16T01:33:22.209Z,35.50
2023-04-16T01:33:54.860Z,35.40
2023-04-16T01:34:27.538Z,36.70
2023-04-16T01:35:00.237Z,36.60
2023-04-16T01:35:32.905Z,40.90
2023-04-16T01:36:05.565Z,35.60
2023-04-16T01:36:38.227Z,36.50
2023-04-16T01:37:10.896Z,37.50
2023-04-16T01:37:43.576Z,36.10
2023-04-16T01:38:16.259Z,36.00
2023-04-16T01:38:48.929Z,36.50
2023-04-16T01:39:21.591Z,35.90
2023-04-16T01:39:54.289Z,35.40
2023-04-16T01:40:26.933Z,36.80
2023-04-16T01:40:59.643Z,37.80
2023-04-16T01:41:32.288Z,37.50
2023-04-16T01:42:04.951Z,36.80
2023-04-16T01:42:37.677Z,37.80
2023-04-16T01:43:10.329Z,37.50
2023-04-16T01:43:43.014Z,37.20
2023-04-16T01:44:15.692Z,37.00
2023-04-16T01:44:48.373Z,37.40
2023-04-16T01:45:21.056Z,33.80
2023-04-16T01:45:53.721Z,35.50
2023-04-16T01:46:26.443Z,36.50
2023-04-16T01:46:59.247Z,36.20
2023-04-16T01:47:31.963Z,36.40
2023-04-16T01:48:04.624Z,36.90
2023-04-16T01:48:37.299Z,33.20
2023-04-16T01:49:10.133Z,33.00
2023-04-16T01:49:42.891Z,35.00
2023-04-16T01:50:15.563Z,36.30
2023-04-16T01:50:48.233Z,34.30
2023-04-16T01:51:20.899Z,34.00
2023-04-16T01:51:53.567Z,36.10
2023-04-16T01:52:26.236Z,33.60
2023-04-16T01:52:58.925Z,33.50
2023-04-16T01:53:31.593Z,37.80
2023-04-16T01:54:04.295Z,33.10
2023-04-16T01:54:36.961Z,34.20
2023-04-16T01:55:09.650Z,33.90
2023-04-16T01:55:42.304Z,33.00
2023-04-16T01:56:14.971Z,35.80
2023-04-16T01:56:47.643Z,32.10
2023-04-16T01:57:20.297Z,33.70
2023-04-16T01:57:52.982Z,35.80
2023-04-16T01:58:25.646Z,34.60
2023-04-16T01:58:58.315Z,32.40
2023-04-16T01:59:30.970Z,32.20
2023-04-16T02:00:03.638Z,37.10
2023-04-16T02:00:36.336Z,33.50
2023-04-16T02:01:09.019Z,35.30
2023-04-16T02:01:41.690Z,32.30
2023-04-16T02:02:14.409Z,33.70
2023-04-16T02:02:47.297Z,31.80
2023-04-16T02:03:20.262Z,32.10
2023-04-16T02:03:53.190Z,34.20
2023-04-16T02:04:25.907Z,33.00
2023-04-16T02:04:58.576Z,36.10
2023-04-16T02:05:31.249Z,33.30
2023-04-16T02:06:03.958Z,33.70
2023-04-16T02:06:36.622Z,33.30
2023-04-16T02:07:09.319Z,35.10
2023-04-16T02:07:41.986Z,34.10
2023-04-16T02:08:14.650Z,32.70
2023-04-16T02:08:47.310Z,34.10
2023-04-16T02:09:19.982Z,33.90
2023-04-16T02:09:52.650Z,34.40
2023-04-16T02:10:25.344Z,37.70
2023-04-16T02:10:57.991Z,33.90
2023-04-16T02:11:30.665Z,36.20
2023-04-16T02:12:03.325Z,34.10
2023-04-16T02:12:36.010Z,34.30
2023-04-16T02:13:08.669Z,33.20
2023-04-16T02:13:41.338Z,35.90
2023-04-16T02:14:14.012Z,34.40
2023-04-16T02:14:46.670Z,36.00
2023-04-16T02:15:19.338Z,36.00
2023-04-16T02:15:52.010Z,34.70
2023-04-16T02:16:24.810Z,37.30
2023-04-16T02:16:57.492Z,36.80
2023-04-16T02:17:30.179Z,36.30
2023-04-16T02:18:02.879Z,37.40
2023-04-16T02:18:35.519Z,34.70
2023-04-16T02:19:08.836Z,36.00
2023-04-16T02:19:35.132Z,35.00
2023-04-16T02:20:07.836Z,36.70
2023-04-16T02:20:40.490Z,34.10
2023-04-16T02:21:13.179Z,38.50
2023-04-16T02:21:45.853Z,34.20
2023-04-16T02:22:18.520Z,35.80
2023-04-16T02:22:51.216Z,32.60
2023-04-16T02:23:23.876Z,37.10
2023-04-16T02:23:56.546Z,34.30
2023-04-16T02:24:29.239Z,35.40
2023-04-16T02:25:01.899Z,39.20
2023-04-16T02:25:34.582Z,35.90
2023-04-16T02:26:07.232Z,38.90
2023-04-16T02:26:39.908Z,38.60
2023-04-16T02:27:12.587Z,37.30
2023-04-16T02:27:45.264Z,36.80
2023-04-16T02:28:17.919Z,37.30
2023-04-16T02:28:50.600Z,36.10
2023-04-16T02:29:23.257Z,38.40
2023-04-16T02:29:55.957Z,38.00
2023-04-16T02:30:28.599Z,38.70
2023-04-16T02:31:01.261Z,40.50
2023-04-16T02:31:33.972Z,40.30
2023-04-16T02:32:06.737Z,37.80
2023-04-16T02:32:39.506Z,39.40
2023-04-16T02:33:12.194Z,39.70
2023-04-16T02:33:44.854Z,40.60
2023-04-16T02:34:17.535Z,39.70
2023-04-16T02:34:50.189Z,41.80
2023-04-16T02:35:21.306Z,40.40
2023-04-16T02:35:53.951Z,43.90
2023-04-16T02:36:26.616Z,41.30
2023-04-16T02:36:59.282Z,40.20
2023-04-16T02:37:31.944Z,41.40
2023-04-16T02:38:04.629Z,40.70
2023-04-16T02:38:37.308Z,41.90
2023-04-16T02:39:10.183Z,40.50
2023-04-16T02:39:42.949Z,40.10
2023-04-16T02:40:15.610Z,40.70
2023-04-16T02:40:48.309Z,43.30
2023-04-16T02:41:20.976Z,42.50
2023-04-16T02:41:52.048Z,42.10
2023-04-16T02:42:24.720Z,41.40
2023-04-16T02:42:57.402Z,41.60
2023-04-16T02:43:30.080Z,42.20
2023-04-16T02:44:02.794Z,41.90
2023-04-16T02:44:35.441Z,41.40
2023-04-16T02:45:08.113Z,44.70
2023-04-16T02:45:40.822Z,43.40
2023-04-16T02:46:13.533Z,41.40
2023-04-16T02:46:46.177Z,41.60
2023-04-16T02:47:18.887Z,42.70
2023-04-16T02:47:51.550Z,41.70
2023-04-16T02:48:24.220Z,42.30
2023-04-16T02:48:56.895Z,43.10
2023-04-16T02:49:29.551Z,41.70
2023-04-16T02:50:02.203Z,44.00
2023-04-16T02:50:34.876Z,43.60
2023-04-16T02:51:07.555Z,40.60
2023-04-16T02:51:40.241Z,40.60
2023-04-16T02:52:15.104Z,41.80
2023-04-16T02:52:41.865Z,46.20
2023-04-16T02:53:14.514Z,41.10
2023-04-16T02:53:45.609Z,40.90
2023-04-16T02:54:18.257Z,42.00
2023-04-16T02:54:50.925Z,41.20
2023-04-16T02:55:23.621Z,44.40
2023-04-16T02:55:56.337Z,42.40
2023-04-16T02:56:28.985Z,42.10
2023-04-16T02:57:01.641Z,44.60
2023-04-16T02:57:34.327Z,41.80
2023-04-16T02:58:07.006Z,42.20
2023-04-16T02:58:39.672Z,42.00
2023-04-16T02:59:12.369Z,42.20
2023-04-16T02:59:45.025Z,41.20
2023-04-16T03:00:17.701Z,44.60
2023-04-16T03:00:50.360Z,41.40
2023-04-16T03:01:23.232Z,45.40
2023-04-16T03:01:55.930Z,45.00
2023-04-16T03:02:28.717Z,40.80
2023-04-16T03:03:01.461Z,45.60
2023-04-16T03:03:34.153Z,42.50
2023-04-16T03:04:06.896Z,41.30
2023-04-16T03:04:39.682Z,39.60
2023-04-16T03:05:12.456Z,41.60
2023-04-16T03:05:45.111Z,41.00
2023-04-16T03:06:17.781Z,43.90
2023-04-16T03:06:50.450Z,42.40
2023-04-16T03:07:23.116Z,41.30
2023-04-16T03:07:55.807Z,43.00
2023-04-16T03:08:28.479Z,44.60
2023-04-16T03:09:01.188Z,41.60
2023-04-16T03:09:33.821Z,43.60
2023-04-16T03:10:06.483Z,45.20
2023-04-16T03:10:39.158Z,40.80
2023-04-16T03:11:11.853Z,43.30
2023-04-16T03:11:44.486Z,41.60
2023-04-16T03:12:17.172Z,40.20
2023-04-16T03:12:49.838Z,42.30
2023-04-16T03:13:22.507Z,44.30
2023-04-16T03:13:55.187Z,41.30
2023-04-16T03:14:27.855Z,40.60
2023-04-16T03:15:00.554Z,43.00
2023-04-16T03:15:33.298Z,39.40
2023-04-16T03:16:05.969Z,37.10
2023-04-16T03:16:38.811Z,37.60
2023-04-16T03:17:11.459Z,39.30
2023-04-16T03:17:44.217Z,41.20
2023-04-16T03:18:16.911Z,37.40
2023-04-16T03:18:49.583Z,39.90
2023-04-16T03:19:22.253Z,37.50
2023-04-16T03:19:54.919Z,34.30
2023-04-16T03:20:27.607Z,39.90
2023-04-16T03:21:00.259Z,37.10
2023-04-16T03:21:32.926Z,39.50
2023-04-16T03:22:05.605Z,38.90
2023-04-16T03:22:38.277Z,37.80
2023-04-16T03:23:10.981Z,34.10
2023-04-16T03:23:43.629Z,38.20
2023-04-16T03:24:16.290Z,37.70
2023-04-16T03:24:48.978Z,36.00
2023-04-16T03:25:21.645Z,38.80
2023-04-16T03:25:54.325Z,40.20
2023-04-16T03:26:27.001Z,39.80
2023-04-16T03:26:59.657Z,34.50
2023-04-16T03:27:32.344Z,37.00
2023-04-16T03:28:05.018Z,36.40
2023-04-16T03:28:37.679Z,36.50
2023-04-16T03:29:10.622Z,35.20
2023-04-16T03:29:37.019Z,37.10
2023-04-16T03:30:09.705Z,37.10
2023-04-16T03:30:42.359Z,36.50
2023-04-16T03:31:15.084Z,33.20
2023-04-16T03:31:47.914Z,34.80
2023-04-16T03:32:20.599Z,34.70
2023-04-16T03:32:53.307Z,34.70
2023-04-16T03:33:25.950Z,35.20
2023-04-16T03:33:58.643Z,36.40
2023-04-16T03:34:31.313Z,35.80
2023-04-16T03:35:03.973Z,33.80
2023-04-16T03:35:36.658Z,34.90
2023-04-16T03:36:09.312Z,34.60
2023-04-16T03:36:42.005Z,32.00
2023-04-16T03:37:14.668Z,34.80
2023-04-16T03:37:47.537Z,34.00
2023-04-16T03:38:20.201Z,31.10
2023-04-16T03:38:52.869Z,31.70
2023-04-16T03:39:25.535Z,31.40
2023-04-16T03:39:58.203Z,32.70
2023-04-16T03:40:30.870Z,33.60
2023-04-16T03:41:03.607Z,34.80
2023-04-16T03:41:36.258Z,33.30
2023-04-16T03:42:08.914Z,34.40
2023-04-16T03:42:41.577Z,33.10
2023-04-16T03:43:14.234Z,34.80
2023-04-16T03:43:46.911Z,35.10
2023-04-16T03:44:19.587Z,31.10
2023-04-16T03:44:52.266Z,33.80
2023-04-16T03:45:24.934Z,36.90
2023-04-16T03:45:57.595Z,36.80
2023-04-16T03:46:30.336Z,37.70
2023-04-16T03:47:03.002Z,35.10
2023-04-16T03:47:35.712Z,39.00
2023-04-16T03:48:08.385Z,38.30
2023-04-16T03:48:41.073Z,39.10
2023-04-16T03:49:13.719Z,36.40
2023-04-16T03:49:46.506Z,42.80
2023-04-16T03:50:19.132Z,37.70
2023-04-16T03:50:51.802Z,34.60
2023-04-16T03:51:24.480Z,38.80
2023-04-16T03:51:57.161Z,38.80
2023-04-16T03:52:29.838Z,38.70
2023-04-16T03:53:02.523Z,40.10
2023-04-16T03:53:35.179Z,37.00
2023-04-16T03:54:07.845Z,39.10
2023-04-16T03:54:40.535Z,40.10
2023-04-16T03:55:13.207Z,39.30
2023-04-16T03:55:45.879Z,41.00
2023-04-16T03:56:18.581Z,41.00
2023-04-16T03:56:51.284Z,43.00
2023-04-16T03:57:23.928Z,40.80
2023-04-16T03:57:56.620Z,40.00
2023-04-16T03:58:29.295Z,41.50
2023-04-16T03:59:01.938Z,42.00
2023-04-16T03:59:34.604Z,40.60
2023-04-16T04:00:07.276Z,42.50
2023-04-16T04:00:39.944Z,40.60
2023-04-16T04:01:12.627Z,40.70
2023-04-16T04:01:45.309Z,39.30
2023-04-16T04:02:18.023Z,45.80
2023-04-16T04:02:50.844Z,40.50
2023-04-16T04:03:23.789Z,44.10
2023-04-16T04:03:50.280Z,41.50
2023-04-16T04:04:16.728Z,44.20
2023-04-16T04:04:49.474Z,47.10
2023-04-16T04:05:22.152Z,41.80
2023-04-16T04:05:54.815Z,44.50
2023-04-16T04:06:27.487Z,44.80
2023-04-16T04:07:00.139Z,42.70
2023-04-16T04:07:32.799Z,47.60
2023-04-16T04:08:05.506Z,41.50
2023-04-16T04:08:38.152Z,41.00
2023-04-16T04:09:11.029Z,44.00
2023-04-16T04:09:43.807Z,45.80
2023-04-16T04:10:16.459Z,45.00
2023-04-16T04:10:49.128Z,45.30
2023-04-16T04:11:21.820Z,45.20
2023-04-16T04:11:54.485Z,47.20
2023-04-16T04:12:27.134Z,47.30
2023-04-16T04:12:59.818Z,45.40
2023-04-16T04:13:32.519Z,45.50
2023-04-16T04:14:05.177Z,44.30
2023-04-16T04:14:37.860Z,45.20
2023-04-16T04:15:10.529Z,46.60
2023-04-16T04:15:43.180Z,44.50
2023-04-16T04:16:15.881Z,45.50
2023-04-16T04:16:48.627Z,46.20
2023-04-16T04:17:21.367Z,44.40
2023-04-16T04:17:54.078Z,46.40
2023-04-16T04:18:26.763Z,42.30
2023-04-16T04:18:59.407Z,46.00
2023-04-16T04:19:32.077Z,43.40
2023-04-16T04:20:04.744Z,45.00
2023-04-16T04:20:37.422Z,44.70
2023-04-16T04:21:10.085Z,44.50
2023-04-16T04:21:42.769Z,48.00
2023-04-16T04:22:15.418Z,44.60
2023-04-16T04:22:48.088Z,44.70
2023-04-16T04:23:20.768Z,46.70
2023-04-16T04:23:55.010Z,48.80
2023-04-16T04:24:22.141Z,46.60
2023-04-16T04:24:54.829Z,47.40
2023-04-16T04:25:27.481Z,45.80
2023-04-16T04:26:00.212Z,45.00
2023-04-16T04:26:32.859Z,49.70
2023-04-16T04:27:05.570Z,47.20
2023-04-16T04:27:38.209Z,47.70
2023-04-16T04:28:10.924Z,47.80
2023-04-16T04:28:43.589Z,45.20
2023-04-16T04:29:16.261Z,48.60
2023-04-16T04:29:48.943Z,47.90
2023-04-16T04:30:21.597Z,45.40
2023-04-16T04:30:54.270Z,51.10
2023-04-16T04:31:26.948Z,44.70
2023-04-16T04:31:59.654Z,44.40
2023-04-16T04:32:32.439Z,45.40
2023-04-16T04:34:21.744Z,47.10
2023-04-16T04:34:54.415Z,51.70
2023-04-16T04:35:27.096Z,46.70
2023-04-16T04:35:59.750Z,48.30
2023-04-16T04:36:32.423Z,49.10
2023-04-16T04:37:05.096Z,51.30
2023-04-16T04:37:37.762Z,47.50
2023-04-16T04:38:10.463Z,48.40
2023-04-16T04:38:43.126Z,49.00
2023-04-16T04:39:15.812Z,50.10
2023-04-16T04:39:48.464Z,46.30
2023-04-16T04:40:21.126Z,45.40
2023-04-16T04:40:53.796Z,49.40
2023-04-16T04:41:26.457Z,50.80
2023-04-16T04:41:59.152Z,49.90
2023-04-16T04:42:31.824Z,47.40
2023-04-16T04:43:04.498Z,50.80
2023-04-16T04:43:37.162Z,48.90
2023-04-16T04:44:09.819Z,52.10
2023-04-16T04:44:42.500Z,47.30
2023-04-16T04:45:15.175Z,47.70
2023-04-16T04:45:47.849Z,48.60
2023-04-16T04:46:20.569Z,49.50
2023-04-16T04:46:53.251Z,43.80
2023-04-16T04:47:25.951Z,48.70
2023-04-16T04:47:58.635Z,52.10
2023-04-16T04:48:31.298Z,48.70
2023-04-16T04:49:03.964Z,50.20
2023-04-16T04:49:36.640Z,50.90
2023-04-16T04:50:09.334Z,49.80
2023-04-16T04:50:41.997Z,48.60
2023-04-16T04:51:14.663Z,53.10
2023-04-16T04:51:47.346Z,45.80
2023-04-16T04:52:20.016Z,45.70
2023-04-16T04:52:52.708Z,45.10
2023-04-16T04:53:25.352Z,45.30
2023-04-16T04:53:58.013Z,48.10
2023-04-16T04:54:30.680Z,49.10
2023-04-16T04:55:03.355Z,49.70
2023-04-16T04:55:36.019Z,51.20
2023-04-16T04:56:12.866Z,52.30
2023-04-16T04:56:39.291Z,53.60
2023-04-16T04:57:11.965Z,46.40
2023-04-16T04:57:44.655Z,52.80
2023-04-16T04:58:17.329Z,45.00
2023-04-16T04:58:49.984Z,47.30
2023-04-16T04:59:22.652Z,48.10
2023-04-16T04:59:55.318Z,47.50
2023-04-16T05:00:27.985Z,50.10
2023-04-16T05:01:00.708Z,46.90
2023-04-16T05:01:33.418Z,50.50
2023-04-16T05:02:06.105Z,49.40
2023-04-16T05:02:38.904Z,48.60
2023-04-16T05:03:11.742Z,48.50
2023-04-16T05:03:44.623Z,45.90
2023-04-16T05:04:17.546Z,46.90
2023-04-16T05:04:50.370Z,47.10
2023-04-16T05:05:23.048Z,48.80
2023-04-16T05:05:55.704Z,45.90
2023-04-16T05:06:29.686Z,44.10
2023-04-16T05:06:55.868Z,46.70
2023-04-16T05:07:28.548Z,45.50
2023-04-16T05:08:01.240Z,45.40
2023-04-16T05:08:33.903Z,43.10
2023-04-16T05:09:06.598Z,46.20
2023-04-16T05:09:39.265Z,50.50
2023-04-16T05:10:11.941Z,48.20
2023-04-16T05:10:44.622Z,46.60
2023-04-16T05:11:17.306Z,44.90
2023-04-16T05:11:49.979Z,50.60
2023-04-16T05:12:21.067Z,46.10
2023-04-16T05:12:53.789Z,46.10
2023-04-16T05:13:26.428Z,48.30
2023-04-16T05:13:57.518Z,45.80
2023-04-16T05:14:30.194Z,47.00
2023-04-16T05:15:02.880Z,47.10
2023-04-16T05:15:35.520Z,46.60
2023-04-16T05:16:08.190Z,49.30
2023-04-16T05:16:40.890Z,46.20
2023-04-16T05:17:13.574Z,45.90
2023-04-16T05:17:46.280Z,46.50
2023-04-16T05:18:18.938Z,44.70
2023-04-16T05:18:51.602Z,47.70
2023-04-16T05:19:24.258Z,47.20
2023-04-16T05:19:56.958Z,45.60
2023-04-16T05:20:29.598Z,45.60
2023-04-16T05:21:02.261Z,43.00
2023-04-16T05:21:34.942Z,47.40
2023-04-16T05:22:07.588Z,47.50
2023-04-16T05:22:40.387Z,45.40
2023-04-16T05:23:13.045Z,42.90
2023-04-16T05:23:45.713Z,44.10
2023-04-16T05:24:18.366Z,44.90
2023-04-16T05:24:51.037Z,46.60
2023-04-16T05:25:23.712Z,45.10
2023-04-16T05:25:56.401Z,43.10
2023-04-16T05:26:29.082Z,44.80
2023-04-16T05:27:01.744Z,43.70
2023-04-16T05:27:34.427Z,42.10
2023-04-16T05:28:07.177Z,45.40
2023-04-16T05:28:39.878Z,45.10
2023-04-16T05:29:12.560Z,41.50
2023-04-16T05:29:45.192Z,45.40
2023-04-16T05:30:17.859Z,42.10
2023-04-16T05:30:50.566Z,43.20
2023-04-16T05:31:23.280Z,45.90
2023-04-16T05:31:55.938Z,45.10
2023-04-16T05:32:28.626Z,43.50
2023-04-16T05:33:01.395Z,43.10
2023-04-16T05:33:34.064Z,43.60
2023-04-16T05:34:06.732Z,43.70
2023-04-16T05:34:39.389Z,43.90
2023-04-16T05:35:12.069Z,42.10
2023-04-16T05:35:44.741Z,44.00
2023-04-16T05:36:17.420Z,41.80
2023-04-16T05:36:50.067Z,42.60
2023-04-16T05:37:22.737Z,45.40
2023-04-16T05:37:55.409Z,41.60
2023-04-16T05:38:28.075Z,40.60
2023-04-16T05:39:00.761Z,40.80
2023-04-16T05:39:33.421Z,42.30
2023-04-16T05:40:06.086Z,38.70
2023-04-16T05:40:38.765Z,40.10
2023-04-16T05:41:11.405Z,40.70
2023-04-16T05:41:44.083Z,41.00
2023-04-16T05:42:16.788Z,41.90
2023-04-16T05:42:49.438Z,42.70
2023-04-16T05:43:22.154Z,41.90
2023-04-16T05:43:54.816Z,41.60
2023-04-16T05:44:27.497Z,44.40
2023-04-16T05:45:00.164Z,41.10
2023-04-16T05:45:32.826Z,41.20
2023-04-16T05:46:05.514Z,43.90
2023-04-16T05:46:38.394Z,40.40
2023-04-16T05:47:11.164Z,40.50
2023-04-16T05:47:43.852Z,38.70
2023-04-16T05:48:16.511Z,41.80
2023-04-16T05:48:49.177Z,41.30
2023-04-16T05:49:21.840Z,43.50
2023-04-16T05:49:54.508Z,39.60
2023-04-16T05:50:27.198Z,42.20
2023-04-16T05:50:59.856Z,41.00
2023-04-16T05:51:32.528Z,39.90
2023-04-16T05:52:05.203Z,43.90
2023-04-16T05:52:37.879Z,39.30
2023-04-16T05:53:10.552Z,39.50
2023-04-16T05:53:43.225Z,44.30
2023-04-16T05:54:15.922Z,41.80
2023-04-16T05:54:48.596Z,39.10
2023-04-16T05:55:21.242Z,40.90
2023-04-16T05:55:53.908Z,41.90
2023-04-16T05:56:26.577Z,41.30
2023-04-16T05:56:59.242Z,40.30
2023-04-16T05:57:31.925Z,39.70
2023-04-16T05:58:04.597Z,43.90
2023-04-16T05:58:37.302Z,40.10
2023-04-16T05:59:10.186Z,39.80
2023-04-16T05:59:36.517Z,40.50
2023-04-16T06:00:09.172Z,36.20
2023-04-16T06:00:41.840Z,37.90
2023-04-16T06:01:14.548Z,38.70
2023-04-16T06:01:47.214Z,39.10
2023-04-16T06:02:20.011Z,37.60
2023-04-16T06:02:52.855Z,39.50
2023-04-16T06:03:25.676Z,37.80
2023-04-16T06:03:58.461Z,38.40
2023-04-16T06:04:31.173Z,38.40
2023-04-16T06:05:03.867Z,41.40
2023-04-16T06:05:36.625Z,42.00
2023-04-16T06:06:09.374Z,39.40
2023-04-16T06:06:42.034Z,40.80
2023-04-16T06:07:14.702Z,39.20
2023-04-16T06:07:47.364Z,41.00
2023-04-16T06:08:20.051Z,42.70
2023-04-16T06:08:52.721Z,40.20
2023-04-16T06:09:25.383Z,43.40
2023-04-16T06:09:58.069Z,39.90
2023-04-16T06:10:30.737Z,39.90
2023-04-16T06:11:03.409Z,42.00
2023-04-16T06:11:36.519Z,39.30
2023-04-16T06:12:02.712Z,37.50
2023-04-16T06:12:35.387Z,41.90
2023-04-16T06:13:08.079Z,44.80
2023-04-16T06:13:40.769Z,40.60
2023-04-16T06:14:13.403Z,38.10
2023-04-16T06:14:46.081Z,44.40
2023-04-16T06:15:18.742Z,39.00
2023-04-16T06:15:51.439Z,41.00
2023-04-16T06:16:24.078Z,38.90
2023-04-16T06:16:56.746Z,40.00
2023-04-16T06:17:29.420Z,40.10
2023-04-16T06:18:02.163Z,39.90
2023-04-16T06:18:34.861Z,40.10
2023-04-16T06:19:07.701Z,41.20
2023-04-16T06:19:40.460Z,41.60
2023-04-16T06:20:13.122Z,40.70
2023-04-16T06:20:45.813Z,36.90
2023-04-16T06:21:18.459Z,40.30
2023-04-16T06:21:51.152Z,39.00
2023-04-16T06:22:23.813Z,41.50
2023-04-16T06:22:56.495Z,40.20
2023-04-16T06:23:29.167Z,39.00
2023-04-16T06:24:01.875Z,41.40
2023-04-16T06:24:34.528Z,42.10
2023-04-16T06:25:07.205Z,41.00
2023-04-16T06:25:39.883Z,38.40
2023-04-16T06:26:12.530Z,40.90
2023-04-16T06:26:45.224Z,39.30
2023-04-16T06:27:17.892Z,40.30
2023-04-16T06:27:50.605Z,41.60
2023-04-16T06:28:23.259Z,40.00
2023-04-16T06:28:55.939Z,39.50
2023-04-16T06:29:39.987Z,39.20
2023-04-16T06:30:00.666Z,40.80
2023-04-16T06:30:26.842Z,39.60
2023-04-16T06:30:59.520Z,39.90
2023-04-16T06:31:32.253Z,42.80
2023-04-16T06:32:04.974Z,38.30
2023-04-16T06:32:37.696Z,38.60
2023-04-16T06:33:10.350Z,40.30
2023-04-16T06:33:43.004Z,38.40
2023-04-16T06:34:15.692Z,39.40
2023-04-16T06:34:48.498Z,41.30
2023-04-16T06:35:21.175Z,39.60
2023-04-16T06:35:53.824Z,42.50
2023-04-16T06:36:26.518Z,42.90
2023-04-16T06:36:59.153Z,42.60
2023-04-16T06:37:31.844Z,41.30
2023-04-16T06:38:04.516Z,43.80
2023-04-16T06:38:37.195Z,41.90
2023-04-16T06:39:10.162Z,42.70
2023-04-16T06:39:36.471Z,44.80
2023-04-16T06:40:09.146Z,39.10
2023-04-16T06:40:41.812Z,43.60
2023-04-16T06:41:14.480Z,42.90
2023-04-16T06:41:47.162Z,41.80
2023-04-16T06:42:19.820Z,42.70
2023-04-16T06:42:52.489Z,39.00
2023-04-16T06:43:25.148Z,39.60
2023-04-16T06:43:57.842Z,40.90
2023-04-16T06:44:30.479Z,39.40
2023-04-16T06:45:03.152Z,40.40
2023-04-16T06:45:35.814Z,39.80
2023-04-16T06:46:08.498Z,39.40
2023-04-16T06:46:41.290Z,42.30
2023-04-16T06:47:13.962Z,44.50
2023-04-16T06:47:46.700Z,41.80
2023-04-16T06:48:19.363Z,41.60
2023-04-16T06:48:52.032Z,44.10
2023-04-16T06:49:24.705Z,41.50
2023-04-16T06:49:57.418Z,43.00
2023-04-16T06:50:30.060Z,41.30
2023-04-16T06:51:02.730Z,41.20
2023-04-16T06:51:35.398Z,40.70
2023-04-16T06:52:08.062Z,43.70
2023-04-16T06:52:40.743Z,42.00
2023-04-16T06:53:13.417Z,41.30
2023-04-16T06:53:46.085Z,42.40
2023-04-16T06:54:18.759Z,43.60
2023-04-16T06:54:51.453Z,41.80
2023-04-16T06:55:24.103Z,41.90
2023-04-16T06:55:56.770Z,41.80
2023-04-16T06:56:29.431Z,43.00
2023-04-16T06:57:02.151Z,42.90
2023-04-16T06:57:37.319Z,41.20
2023-04-16T06:58:03.694Z,38.30
2023-04-16T06:58:36.373Z,38.30
2023-04-16T06:59:09.314Z,39.50
2023-04-16T06:59:35.593Z,43.50
2023-04-16T07:00:08.269Z,39.30